Portada
METAR-TAF:

METAR-TAF

Aeroports :

Agri-Science Center

Chillicothe, Missouri, Estats Units d'Amèrica

latitud: 39-49N, longitud: 093-35W, altitud: 234 m

Observació

L'informe es va fer fa 55 minuts, a les 13:52 UTC
Vent 11 kt del Sud
Temperatura -5°C
Humitat 68%
Pressió 1019 hPa

METAR: KCDJ 131352Z AUTO 18011KT M05/M10 A3008 RMK AO1 SLP208 T10501100

Hora: 08:47 (14:47 UTC)


TAF: manca

Observacions i pronòstics meteorològics de més de 4000 aeroports (METAR i TAF).

Les estacions disponibles són els punts grocs i vermells al mapa.

Posi el ratolí al punt desitjat per veure el nom de l'estació.

Feu clic per veure les observacions i els pronòstics meteorològics.

Per canviar el mapa: feu clic els botons verds amb una creu de color negre per apropar; al botó verd amb un guió per allunyar la imatge; o en les fletxes verdes per a mapes adjacents.


METAR-TAF: